createdAt,value
2023-05-17T00:00:56.984Z,10.05
2023-05-17T00:01:56.969Z,10.10
2023-05-17T00:02:57.017Z,10.09
2023-05-17T00:03:56.960Z,10.05
2023-05-17T00:04:56.986Z,10.02
2023-05-17T00:05:57.008Z,10.04
2023-05-17T00:06:56.918Z,9.99
2023-05-17T00:07:56.941Z,10.07
2023-05-17T00:08:56.893Z,10.02
2023-05-17T00:09:57.033Z,10.07
2023-05-17T00:10:56.896Z,10.07
2023-05-17T00:11:56.866Z,10.09
2023-05-17T00:12:56.884Z,10.07
2023-05-17T00:13:56.837Z,10.07
2023-05-17T00:14:56.828Z,10.12
2023-05-17T00:15:56.817Z,10.13
2023-05-17T00:16:56.811Z,10.16
2023-05-17T00:17:56.869Z,10.09
2023-05-17T00:18:56.899Z,9.99
2023-05-17T00:19:56.821Z,10.12
2023-05-17T00:20:56.753Z,9.99
2023-05-17T00:21:56.746Z,10.02
2023-05-17T00:22:56.754Z,9.97
2023-05-17T00:23:56.738Z,10.04
2023-05-17T00:24:56.714Z,10.02
2023-05-17T00:25:56.784Z,9.99
2023-05-17T00:26:56.710Z,9.94
2023-05-17T00:27:56.676Z,10.01
2023-05-17T00:28:56.663Z,9.97
2023-05-17T00:29:56.654Z,10.02
2023-05-17T00:30:56.642Z,9.91
2023-05-17T00:31:56.658Z,9.89
2023-05-17T00:32:56.675Z,10.04
2023-05-17T00:33:56.607Z,9.91
2023-05-17T00:34:56.647Z,9.97
2023-05-17T00:35:56.622Z,9.91
2023-05-17T00:36:56.587Z,9.91
2023-05-17T00:37:56.586Z,9.91
2023-05-17T00:38:56.564Z,9.91
2023-05-17T00:39:56.542Z,9.91
2023-05-17T00:40:56.540Z,9.87
2023-05-17T00:41:56.545Z,9.95
2023-05-17T00:42:56.527Z,9.97
2023-05-17T00:43:56.498Z,9.91
2023-05-17T00:44:56.497Z,9.91
2023-05-17T00:45:56.468Z,9.92
2023-05-17T00:46:56.479Z,9.92
2023-05-17T00:47:56.586Z,9.97
2023-05-17T00:48:56.456Z,9.91
2023-05-17T00:49:56.445Z,9.98
2023-05-17T00:50:56.441Z,9.98
2023-05-17T00:51:56.402Z,9.94
2023-05-17T00:52:56.399Z,9.91
2023-05-17T00:53:56.387Z,9.86
2023-05-17T00:54:56.413Z,9.91
2023-05-17T00:55:56.381Z,9.82
2023-05-17T00:56:56.357Z,9.83
2023-05-17T00:57:56.610Z,9.83
2023-05-17T00:58:56.355Z,9.91
2023-05-17T00:59:56.330Z,9.94
2023-05-17T01:00:56.304Z,9.92
2023-05-17T01:01:56.309Z,9.87
2023-05-17T01:02:56.381Z,9.92
2023-05-17T01:03:56.327Z,9.98
2023-05-17T01:04:56.292Z,9.94
2023-05-17T01:05:56.242Z,10.01
2023-05-17T01:06:56.248Z,9.99
2023-05-17T01:07:56.225Z,9.92
2023-05-17T01:08:56.222Z,9.95
2023-05-17T01:09:56.209Z,9.92
2023-05-17T01:10:56.190Z,9.98
2023-05-17T01:11:56.180Z,9.97
2023-05-17T01:12:56.202Z,9.92
2023-05-17T01:13:56.262Z,10.02
2023-05-17T01:14:56.173Z,10.02
2023-05-17T01:15:56.134Z,10.04
2023-05-17T01:16:56.117Z,9.99
2023-05-17T01:17:56.149Z,10.07
2023-05-17T01:18:56.320Z,9.97
2023-05-17T01:19:56.146Z,10.05
2023-05-17T01:20:56.082Z,10.12
2023-05-17T01:21:56.056Z,10.05
2023-05-17T01:22:56.116Z,10.09
2023-05-17T01:23:56.038Z,10.15
2023-05-17T01:24:56.058Z,10.01
2023-05-17T01:25:56.032Z,9.97
2023-05-17T01:26:56.008Z,10.07
2023-05-17T01:27:55.995Z,10.13
2023-05-17T01:28:56.009Z,9.98
2023-05-17T01:29:56.128Z,10.05
2023-05-17T01:30:55.964Z,10.02
2023-05-17T01:31:55.950Z,10.13
2023-05-17T01:32:55.995Z,10.04
2023-05-17T01:33:55.931Z,10.04
2023-05-17T01:34:55.934Z,10.07
2023-05-17T01:35:55.925Z,10.09
2023-05-17T01:36:55.899Z,10.05
2023-05-17T01:37:55.903Z,10.07
2023-05-17T01:38:55.884Z,10.05
2023-05-17T01:39:55.870Z,10.01
2023-05-17T01:40:55.861Z,10.04
2023-05-17T01:41:55.832Z,9.99
2023-05-17T01:42:55.825Z,10.04
2023-05-17T01:43:55.830Z,10.04
2023-05-17T01:44:55.801Z,10.07
2023-05-17T01:45:55.894Z,10.07
2023-05-17T01:46:55.774Z,10.02
2023-05-17T01:47:55.853Z,10.01
2023-05-17T01:48:55.835Z,10.01
2023-05-17T01:49:55.744Z,10.09
2023-05-17T01:50:55.740Z,9.99
2023-05-17T01:51:55.733Z,10.02
2023-05-17T01:52:55.714Z,10.02
2023-05-17T01:53:55.706Z,9.92
2023-05-17T01:54:55.691Z,9.94
2023-05-17T01:55:55.683Z,9.91
2023-05-17T01:56:55.692Z,9.91
2023-05-17T01:57:55.651Z,9.95
2023-05-17T01:58:55.640Z,9.89
2023-05-17T01:59:55.627Z,9.89
2023-05-17T02:00:55.637Z,9.74
2023-05-17T02:01:55.707Z,9.83
2023-05-17T02:02:55.631Z,9.79
2023-05-17T02:03:55.586Z,9.83
2023-05-17T02:04:55.658Z,9.86
2023-05-17T02:05:55.560Z,9.74
2023-05-17T02:06:55.560Z,9.77
2023-05-17T02:07:55.542Z,9.76
2023-05-17T02:08:55.533Z,9.74
2023-05-17T02:09:55.525Z,9.76
2023-05-17T02:10:55.508Z,9.74
2023-05-17T02:11:55.517Z,9.80
2023-05-17T02:12:55.481Z,9.73
2023-05-17T02:13:55.482Z,9.77
2023-05-17T02:14:55.461Z,9.74
2023-05-17T02:15:55.469Z,9.74
2023-05-17T02:16:55.447Z,9.77
2023-05-17T02:17:55.649Z,9.66
2023-05-17T02:18:55.532Z,9.69
2023-05-17T02:19:55.404Z,9.72
2023-05-17T02:20:55.403Z,9.66
2023-05-17T02:21:55.382Z,9.73
2023-05-17T02:22:55.375Z,9.65
2023-05-17T02:23:55.363Z,9.62
2023-05-17T02:24:55.390Z,9.61
2023-05-17T02:25:55.345Z,9.66
2023-05-17T02:26:55.351Z,9.58
2023-05-17T02:27:55.328Z,9.51
2023-05-17T02:28:55.322Z,9.54
2023-05-17T02:29:55.317Z,9.48
2023-05-17T02:30:55.288Z,9.48
2023-05-17T02:31:55.269Z,9.43
2023-05-17T02:32:55.344Z,9.40
2023-05-17T02:33:55.493Z,9.48
2023-05-17T02:34:55.266Z,9.50
2023-05-17T02:35:55.241Z,9.48
2023-05-17T02:36:55.220Z,9.47
2023-05-17T02:37:55.206Z,9.43
2023-05-17T02:38:55.194Z,9.46
2023-05-17T02:39:55.211Z,9.36
2023-05-17T02:40:55.193Z,9.41
2023-05-17T02:41:55.155Z,9.44
2023-05-17T02:42:55.147Z,9.28
2023-05-17T02:43:55.132Z,9.26
2023-05-17T02:44:55.126Z,9.25
2023-05-17T02:45:55.161Z,9.31
2023-05-17T02:46:55.161Z,9.37
2023-05-17T02:47:55.148Z,9.31
2023-05-17T02:48:55.092Z,9.29
2023-05-17T02:49:55.080Z,9.28
2023-05-17T02:50:55.056Z,9.31
2023-05-17T02:51:55.059Z,9.25
2023-05-17T02:52:55.038Z,9.32
2023-05-17T02:53:55.026Z,9.28
2023-05-17T02:54:55.071Z,9.25
2023-05-17T02:55:54.993Z,9.25
2023-05-17T02:56:55.008Z,9.18
2023-05-17T02:57:54.978Z,9.23
2023-05-17T02:58:54.963Z,9.08
2023-05-17T02:59:54.948Z,9.18
2023-05-17T03:00:54.965Z,9.22
2023-05-17T03:01:54.928Z,9.10
2023-05-17T03:02:55.005Z,9.06
2023-05-17T03:03:55.152Z,9.00
2023-05-17T03:04:54.954Z,9.03
2023-05-17T03:05:55.111Z,9.08
2023-05-17T03:06:54.907Z,9.00
2023-05-17T03:07:54.860Z,9.00
2023-05-17T03:08:55.071Z,9.08
2023-05-17T03:09:54.856Z,9.03
2023-05-17T03:10:54.828Z,9.02
2023-05-17T03:11:54.819Z,9.02
2023-05-17T03:12:54.804Z,8.97
2023-05-17T03:13:54.794Z,8.97
2023-05-17T03:14:54.840Z,8.91
2023-05-17T03:15:54.787Z,8.87
2023-05-17T03:16:54.775Z,8.88
2023-05-17T03:17:54.769Z,8.84
2023-05-17T03:18:54.927Z,8.81
2023-05-17T03:19:54.774Z,8.88
2023-05-17T03:20:54.727Z,8.84
2023-05-17T03:21:54.905Z,8.81
2023-05-17T03:22:54.700Z,8.79
2023-05-17T03:23:54.699Z,8.76
2023-05-17T03:24:54.694Z,8.89
2023-05-17T03:25:54.683Z,8.78
2023-05-17T03:26:54.648Z,8.71
2023-05-17T03:27:54.758Z,8.76
2023-05-17T03:28:54.645Z,8.71
2023-05-17T03:29:54.614Z,8.74
2023-05-17T03:30:54.666Z,8.69
2023-05-17T03:31:54.593Z,8.66
2023-05-17T03:32:54.641Z,8.64
2023-05-17T03:33:54.663Z,8.64
2023-05-17T03:34:54.573Z,8.53
2023-05-17T03:35:54.545Z,8.61
2023-05-17T03:36:54.610Z,8.67
2023-05-17T03:37:54.678Z,8.67
2023-05-17T03:38:54.515Z,8.61
2023-05-17T03:39:54.498Z,8.60
2023-05-17T03:40:54.515Z,8.61
2023-05-17T03:41:54.477Z,8.58
2023-05-17T03:42:54.506Z,8.63
2023-05-17T03:43:54.455Z,8.55
2023-05-17T03:44:54.444Z,8.61
2023-05-17T03:45:54.429Z,8.53
2023-05-17T03:46:54.434Z,8.56
2023-05-17T03:47:54.466Z,8.46
2023-05-17T03:48:54.499Z,8.53
2023-05-17T03:49:54.389Z,8.49
2023-05-17T03:50:54.393Z,8.44
2023-05-17T03:51:54.363Z,8.51
2023-05-17T03:52:54.370Z,8.45
2023-05-17T03:53:54.434Z,8.45
2023-05-17T03:54:54.344Z,8.48
2023-05-17T03:55:54.319Z,8.51
2023-05-17T03:56:54.323Z,8.46
2023-05-17T03:57:54.324Z,8.45
2023-05-17T03:58:54.281Z,8.45
2023-05-17T03:59:54.278Z,8.55
2023-05-17T04:00:54.264Z,8.52
2023-05-17T04:01:54.254Z,8.53
2023-05-17T04:02:54.286Z,8.60
2023-05-17T04:03:54.267Z,8.67
2023-05-17T04:04:54.246Z,8.61
2023-05-17T04:05:54.221Z,8.60
2023-05-17T04:06:54.218Z,8.69
2023-05-17T04:07:54.213Z,8.71
2023-05-17T04:08:54.200Z,8.66
2023-05-17T04:09:54.538Z,8.74
2023-05-17T04:10:54.154Z,8.71
2023-05-17T04:11:54.144Z,8.73
2023-05-17T04:12:54.125Z,8.74
2023-05-17T04:13:54.166Z,8.67
2023-05-17T04:14:54.120Z,8.70
2023-05-17T04:15:54.099Z,8.66
2023-05-17T04:16:54.080Z,8.71
2023-05-17T04:17:54.132Z,8.78
2023-05-17T04:18:54.153Z,8.81
2023-05-17T04:19:54.163Z,8.84
2023-05-17T04:20:54.040Z,8.81
2023-05-17T04:21:54.030Z,8.81
2023-05-17T04:22:54.022Z,8.76
2023-05-17T04:23:54.011Z,8.78
2023-05-17T04:24:53.996Z,8.76
2023-05-17T04:25:54.115Z,8.82
2023-05-17T04:26:53.977Z,8.81
2023-05-17T04:27:53.982Z,8.78
2023-05-17T04:28:53.966Z,8.85
2023-05-17T04:29:53.940Z,8.89
2023-05-17T04:30:53.929Z,8.78
2023-05-17T04:31:53.911Z,8.78
2023-05-17T04:32:53.998Z,8.76
2023-05-17T04:33:53.916Z,8.79
2023-05-17T04:34:53.888Z,8.76
2023-05-17T04:35:53.904Z,8.89
2023-05-17T04:36:53.870Z,8.82
2023-05-17T04:37:53.854Z,8.78
2023-05-17T04:38:53.829Z,8.78
2023-05-17T04:39:53.837Z,8.84
2023-05-17T04:40:53.822Z,8.81
2023-05-17T04:41:53.921Z,8.97
2023-05-17T04:42:53.795Z,8.82
2023-05-17T04:43:53.796Z,8.82
2023-05-17T04:44:53.794Z,8.81
2023-05-17T04:45:53.759Z,8.85
2023-05-17T04:46:53.760Z,8.91
2023-05-17T04:47:53.850Z,8.87
2023-05-17T04:48:53.829Z,9.04
2023-05-17T04:49:53.722Z,8.97
2023-05-17T04:50:53.700Z,8.95
2023-05-17T04:51:53.698Z,9.00
2023-05-17T04:52:53.679Z,9.02
2023-05-17T04:53:53.729Z,9.08
2023-05-17T04:54:53.671Z,9.10
2023-05-17T04:55:53.649Z,8.99
2023-05-17T04:56:53.629Z,9.08
2023-05-17T04:57:53.716Z,9.14
2023-05-17T04:58:53.622Z,9.14
2023-05-17T04:59:53.614Z,9.11
2023-05-17T05:00:53.587Z,9.13
2023-05-17T05:01:53.575Z,9.21
2023-05-17T05:02:53.585Z,9.21
2023-05-17T05:03:53.620Z,9.31
2023-05-17T05:04:53.591Z,9.22
2023-05-17T05:05:53.531Z,9.29
2023-05-17T05:06:53.518Z,9.31
2023-05-17T05:07:53.507Z,9.32
2023-05-17T05:08:53.493Z,9.36
2023-05-17T05:09:53.494Z,9.39
2023-05-17T05:10:53.488Z,9.51
2023-05-17T05:11:53.461Z,9.55
2023-05-17T05:12:53.447Z,9.65
2023-05-17T05:13:53.536Z,9.80
2023-05-17T05:14:53.428Z,9.91
2023-05-17T05:15:53.434Z,10.02
2023-05-17T05:16:53.426Z,10.16
2023-05-17T05:17:53.523Z,10.28
2023-05-17T05:18:53.560Z,10.31
2023-05-17T05:19:53.501Z,10.37
2023-05-17T05:20:53.357Z,10.56
2023-05-17T05:21:53.348Z,10.67
2023-05-17T05:22:53.342Z,10.72
2023-05-17T05:23:53.335Z,10.75
2023-05-17T05:24:53.339Z,10.75
2023-05-17T05:25:53.336Z,10.72
2023-05-17T05:26:53.289Z,10.72
2023-05-17T05:27:53.280Z,10.72
2023-05-17T05:28:53.278Z,10.87
2023-05-17T05:29:53.349Z,10.78
2023-05-17T05:30:53.450Z,10.97
2023-05-17T05:31:53.244Z,11.05
2023-05-17T05:32:53.352Z,11.04
2023-05-17T05:33:53.270Z,11.17
2023-05-17T05:34:53.195Z,11.32
2023-05-17T05:35:53.197Z,11.35
2023-05-17T05:36:53.193Z,11.45
2023-05-17T05:37:53.196Z,11.50
2023-05-17T05:38:53.198Z,11.62
2023-05-17T05:39:53.165Z,11.66
2023-05-17T05:40:53.262Z,11.65
2023-05-17T05:41:53.136Z,11.75
2023-05-17T05:42:53.146Z,11.80
2023-05-17T05:43:53.104Z,12.02
2023-05-17T05:44:53.097Z,11.88
2023-05-17T05:45:53.298Z,11.95
2023-05-17T05:46:53.085Z,11.97
2023-05-17T05:47:53.207Z,12.03
2023-05-17T05:48:53.073Z,12.24
2023-05-17T05:49:53.037Z,12.31
2023-05-17T05:50:53.029Z,12.46
2023-05-17T05:51:53.037Z,12.64
2023-05-17T05:52:56.252Z,12.73
2023-05-17T05:53:53.991Z,12.91
2023-05-17T05:54:52.978Z,13.16
2023-05-17T05:55:52.973Z,13.28
2023-05-17T05:56:52.969Z,13.28
2023-05-17T05:57:52.970Z,13.37
2023-05-17T05:58:52.931Z,13.38
2023-05-17T05:59:52.919Z,13.46
2023-05-17T06:00:52.926Z,13.62
2023-05-17T06:01:52.988Z,13.79
2023-05-17T06:02:52.935Z,13.87
2023-05-17T06:03:52.878Z,13.92
2023-05-17T06:04:52.880Z,14.08
2023-05-17T06:05:52.925Z,14.22
2023-05-17T06:06:52.982Z,14.33
2023-05-17T06:07:52.841Z,14.41
2023-05-17T06:08:52.819Z,14.30
2023-05-17T06:09:52.806Z,14.35
2023-05-17T06:10:52.831Z,14.48
2023-05-17T06:11:52.787Z,14.53
2023-05-17T06:12:52.795Z,14.45
2023-05-17T06:13:52.795Z,14.25
2023-05-17T06:14:52.748Z,14.30
2023-05-17T06:15:52.766Z,14.43
2023-05-17T06:16:52.727Z,14.45
2023-05-17T06:17:52.867Z,14.47
2023-05-17T06:18:52.788Z,14.54
2023-05-17T06:19:52.859Z,14.50
2023-05-17T06:20:52.681Z,14.66
2023-05-17T06:21:52.682Z,14.62
2023-05-17T06:22:52.665Z,14.60
2023-05-17T06:23:52.664Z,14.63
2023-05-17T06:24:52.771Z,14.70
2023-05-17T06:25:52.641Z,14.69
2023-05-17T06:26:52.629Z,14.78
2023-05-17T06:27:52.622Z,14.88
2023-05-17T06:28:52.602Z,14.77
2023-05-17T06:29:52.592Z,14.73
2023-05-17T06:30:52.569Z,14.70
2023-05-17T06:31:52.596Z,14.55
2023-05-17T06:32:52.577Z,14.63
2023-05-17T06:33:52.652Z,14.44
2023-05-17T06:34:52.542Z,14.50
2023-05-17T06:35:56.868Z,14.53
2023-05-17T06:36:53.527Z,14.51
2023-05-17T06:37:52.496Z,14.60
2023-05-17T06:38:52.473Z,14.58
2023-05-17T06:40:00.060Z,14.63
2023-05-17T06:40:53.462Z,14.73
2023-05-17T06:41:52.446Z,14.63
2023-05-17T06:42:52.455Z,14.70
2023-05-17T06:43:52.449Z,14.65
2023-05-17T06:44:52.416Z,14.32
2023-05-17T06:45:52.397Z,14.20
2023-05-17T06:46:52.380Z,13.93
2023-05-17T06:47:52.427Z,13.74
2023-05-17T06:48:52.502Z,13.79
2023-05-17T06:49:52.628Z,13.67
2023-05-17T06:50:52.368Z,13.85
2023-05-17T06:51:52.327Z,13.90
2023-05-17T06:52:52.315Z,13.78
2023-05-17T06:53:52.313Z,13.63
2023-05-17T06:54:52.307Z,13.71
2023-05-17T06:55:52.286Z,13.56
2023-05-17T06:56:52.291Z,13.38
2023-05-17T06:57:52.261Z,13.33
2023-05-17T06:58:52.250Z,13.16
2023-05-17T06:59:52.317Z,13.19
2023-05-17T07:00:52.221Z,13.35
2023-05-17T07:01:52.224Z,13.49
2023-05-17T07:02:52.295Z,13.56
2023-05-17T07:03:52.321Z,13.77
2023-05-17T07:04:52.207Z,13.95
2023-05-17T07:05:52.247Z,13.86
2023-05-17T07:06:52.172Z,13.68
2023-05-17T07:07:52.191Z,13.60
2023-05-17T07:08:52.166Z,13.56
2023-05-17T07:09:52.124Z,13.38
2023-05-17T07:10:52.705Z,13.54
2023-05-17T07:11:52.119Z,13.71
2023-05-17T07:12:52.101Z,13.93
2023-05-17T07:13:54.354Z,14.00
2023-05-17T07:14:52.089Z,14.10
2023-05-17T07:15:52.062Z,14.00
2023-05-17T07:16:52.053Z,13.97
2023-05-17T07:17:52.103Z,14.08
2023-05-17T07:18:52.083Z,14.26
2023-05-17T07:19:52.190Z,14.22
2023-05-17T07:20:52.019Z,14.11
2023-05-17T07:21:52.167Z,14.05
2023-05-17T07:22:52.078Z,14.12
2023-05-17T07:23:51.973Z,14.15
2023-05-17T07:24:51.983Z,14.00
2023-05-17T07:25:51.989Z,13.87
2023-05-17T07:26:52.653Z,13.78
2023-05-17T07:27:51.932Z,13.68
2023-05-17T07:28:51.917Z,13.63
2023-05-17T07:29:51.907Z,13.50
2023-05-17T07:30:51.898Z,13.42
2023-05-17T07:31:51.904Z,13.31
2023-05-17T07:32:51.923Z,13.28
2023-05-17T07:33:51.864Z,13.28
2023-05-17T07:34:51.864Z,13.16
2023-05-17T07:35:51.845Z,13.04
2023-05-17T07:36:51.825Z,13.03
2023-05-17T07:37:51.831Z,12.97
2023-05-17T07:38:51.822Z,12.94
2023-05-17T07:39:51.785Z,12.95
2023-05-17T07:40:51.783Z,12.97
2023-05-17T07:41:51.765Z,12.97
2023-05-17T07:42:51.761Z,13.16
2023-05-17T07:43:51.758Z,13.12
2023-05-17T07:44:51.767Z,13.03
2023-05-17T07:45:51.720Z,12.94
2023-05-17T07:46:52.737Z,12.90
2023-05-17T07:47:51.772Z,12.78
2023-05-17T07:48:51.914Z,12.70
2023-05-17T07:49:51.687Z,12.70
2023-05-17T07:50:51.688Z,12.60
2023-05-17T07:51:51.654Z,12.62
2023-05-17T07:52:51.644Z,12.64
2023-05-17T07:53:51.665Z,12.58
2023-05-17T07:54:51.631Z,12.67
2023-05-17T07:55:51.665Z,13.01
2023-05-17T07:56:51.622Z,13.28
2023-05-17T07:57:51.583Z,13.49
2023-05-17T07:58:51.586Z,13.78
2023-05-17T07:59:51.608Z,13.89
2023-05-17T08:00:51.554Z,14.10
2023-05-17T08:01:51.562Z,14.15
2023-05-17T08:02:51.600Z,14.29
2023-05-17T08:03:51.543Z,14.22
2023-05-17T08:04:51.543Z,14.22
2023-05-17T08:05:51.543Z,14.28
2023-05-17T08:06:51.500Z,14.18
2023-05-17T08:07:51.478Z,14.15
2023-05-17T08:08:51.465Z,14.05
2023-05-17T08:09:51.522Z,13.95
2023-05-17T08:10:51.445Z,13.99
2023-05-17T08:11:51.451Z,13.86
2023-05-17T08:12:51.420Z,13.92
2023-05-17T08:13:51.407Z,13.78
2023-05-17T08:14:51.406Z,13.93
2023-05-17T08:15:53.634Z,13.89
2023-05-17T08:16:52.681Z,13.83
2023-05-17T08:17:51.412Z,13.81
2023-05-17T08:18:51.520Z,13.71
2023-05-17T08:19:51.467Z,13.52
2023-05-17T08:20:51.326Z,13.49
2023-05-17T08:21:51.313Z,13.22
2023-05-17T08:22:51.325Z,13.13
2023-05-17T08:23:51.289Z,13.13
2023-05-17T08:24:51.289Z,13.15
2023-05-17T08:25:51.308Z,13.05
2023-05-17T08:26:51.269Z,13.04
2023-05-17T08:27:51.267Z,12.95
2023-05-17T08:28:51.242Z,13.03
2023-05-17T08:29:51.222Z,13.12
2023-05-17T08:30:51.241Z,13.31
2023-05-17T08:31:51.212Z,13.68
2023-05-17T08:32:51.298Z,13.90
2023-05-17T08:33:51.203Z,14.10
2023-05-17T08:34:51.192Z,14.17
2023-05-17T08:35:51.181Z,14.07
2023-05-17T08:36:51.169Z,14.08
2023-05-17T08:37:51.133Z,14.17
2023-05-17T08:38:51.141Z,13.95
2023-05-17T08:39:51.159Z,13.92
2023-05-17T08:40:51.108Z,13.74
2023-05-17T08:41:51.113Z,13.70
2023-05-17T08:42:51.094Z,13.60
2023-05-17T08:43:51.133Z,13.54
2023-05-17T08:44:51.063Z,13.50
2023-05-17T08:45:51.072Z,13.67
2023-05-17T08:46:51.039Z,13.72
2023-05-17T08:47:51.037Z,13.90
2023-05-17T08:48:51.043Z,14.17
2023-05-17T08:49:51.028Z,14.37
2023-05-17T08:50:51.012Z,14.62
2023-05-17T08:51:50.973Z,14.92
2023-05-17T08:52:51.039Z,15.02
2023-05-17T08:53:51.034Z,15.31
2023-05-17T08:54:50.945Z,15.49
2023-05-17T08:55:50.951Z,15.82
2023-05-17T08:56:50.917Z,15.98
2023-05-17T08:57:50.925Z,16.17
2023-05-17T08:58:57.157Z,16.28
2023-05-17T08:59:51.886Z,16.41
2023-05-17T09:00:50.900Z,16.36
2023-05-17T09:01:50.880Z,16.43
2023-05-17T09:02:50.950Z,16.46
2023-05-17T09:03:50.917Z,16.65
2023-05-17T09:04:50.878Z,16.58
2023-05-17T09:05:50.841Z,16.47
2023-05-17T09:06:50.812Z,16.28
2023-05-17T09:07:50.794Z,15.91
2023-05-17T09:08:50.786Z,15.57
2023-05-17T09:09:50.788Z,15.36
2023-05-17T09:10:50.782Z,15.21
2023-05-17T09:11:50.741Z,15.07
2023-05-17T09:12:50.744Z,14.92
2023-05-17T09:13:50.755Z,14.82
2023-05-17T09:14:50.740Z,14.63
2023-05-17T09:15:50.730Z,14.51
2023-05-17T09:16:50.692Z,14.54
2023-05-17T09:17:50.809Z,14.45
2023-05-17T09:18:50.885Z,14.36
2023-05-17T09:19:50.910Z,14.45
2023-05-17T09:20:50.645Z,14.62
2023-05-17T09:21:50.639Z,14.84
2023-05-17T09:22:50.620Z,15.11
2023-05-17T09:24:01.721Z,15.27
2023-05-17T09:24:51.593Z,15.04
2023-05-17T09:25:50.608Z,14.99
2023-05-17T09:26:50.581Z,15.00
2023-05-17T09:27:50.565Z,14.85
2023-05-17T09:28:50.557Z,14.68
2023-05-17T09:29:50.607Z,14.69
2023-05-17T09:30:50.560Z,14.65
2023-05-17T09:31:50.533Z,14.66
2023-05-17T09:32:50.557Z,14.63
2023-05-17T09:33:50.531Z,14.73
2023-05-17T09:34:50.488Z,14.84
2023-05-17T09:35:50.522Z,15.10
2023-05-17T09:36:50.468Z,15.35
2023-05-17T09:37:50.455Z,15.43
2023-05-17T09:38:50.444Z,15.42
2023-05-17T09:39:50.430Z,15.40
2023-05-17T09:40:50.435Z,15.43
2023-05-17T09:41:50.401Z,15.52
2023-05-17T09:42:50.402Z,15.73
2023-05-17T09:43:50.384Z,15.92
2023-05-17T09:44:50.372Z,16.10
2023-05-17T09:45:50.401Z,16.33
2023-05-17T09:46:50.387Z,16.51
2023-05-17T09:47:50.420Z,16.64
2023-05-17T09:48:50.456Z,16.78
2023-05-17T09:49:50.332Z,16.84
2023-05-17T09:50:50.319Z,16.81
2023-05-17T09:51:50.287Z,16.56
2023-05-17T09:52:50.318Z,16.46
2023-05-17T09:53:50.270Z,16.20
2023-05-17T09:54:50.257Z,15.92
2023-05-17T09:55:50.261Z,15.65
2023-05-17T09:56:50.250Z,15.54
2023-05-17T09:57:50.244Z,15.46
2023-05-17T09:58:50.251Z,15.42
2023-05-17T09:59:50.201Z,15.25
2023-05-17T10:00:50.198Z,15.06
2023-05-17T10:01:50.264Z,14.81
2023-05-17T10:02:50.285Z,14.89
2023-05-17T10:03:50.175Z,15.09
2023-05-17T10:04:50.210Z,15.15
2023-05-17T10:05:50.131Z,15.14
2023-05-17T10:06:52.292Z,15.47
2023-05-17T10:07:50.134Z,15.57
2023-05-17T10:08:50.116Z,15.51
2023-05-17T10:09:50.103Z,15.55
2023-05-17T10:10:50.075Z,15.94
2023-05-17T10:11:50.077Z,16.01
2023-05-17T10:12:50.061Z,16.12
2023-05-17T10:13:50.040Z,16.31
2023-05-17T10:14:50.119Z,16.49
2023-05-17T10:15:50.017Z,16.66
2023-05-17T10:16:50.051Z,16.72
2023-05-17T10:17:50.132Z,16.71
2023-05-17T10:18:50.821Z,16.65
2023-05-17T10:19:50.037Z,16.61
2023-05-17T10:20:49.979Z,16.54
2023-05-17T10:21:50.033Z,16.28
2023-05-17T10:22:50.014Z,16.35
2023-05-17T10:23:49.925Z,16.49
2023-05-17T10:24:49.919Z,16.54
2023-05-17T10:25:49.913Z,16.64
2023-05-17T10:26:49.926Z,16.53
2023-05-17T10:27:49.895Z,16.46
2023-05-17T10:28:49.872Z,16.42
2023-05-17T10:29:50.856Z,16.32
2023-05-17T10:30:49.866Z,16.31
2023-05-17T10:31:49.843Z,16.21
2023-05-17T10:32:49.949Z,16.31
2023-05-17T10:33:49.995Z,16.42
2023-05-17T10:35:01.346Z,16.56
2023-05-17T10:35:50.806Z,16.74
2023-05-17T10:36:49.805Z,16.89
2023-05-17T10:37:49.773Z,17.04
2023-05-17T10:38:49.785Z,17.14
2023-05-17T10:39:49.747Z,17.16
2023-05-17T10:40:49.741Z,17.19
2023-05-17T10:41:49.732Z,16.91
2023-05-17T10:42:49.734Z,16.76
2023-05-17T10:43:49.725Z,16.68
2023-05-17T10:44:49.710Z,16.71
2023-05-17T10:45:49.690Z,16.78
2023-05-17T10:46:49.675Z,16.76
2023-05-17T10:47:49.682Z,16.61
2023-05-17T10:48:49.698Z,16.47
2023-05-17T10:49:49.665Z,16.54
2023-05-17T10:51:00.733Z,16.35
2023-05-17T10:51:50.628Z,16.39
2023-05-17T10:52:49.663Z,16.32
2023-05-17T10:53:49.593Z,16.28
2023-05-17T10:54:49.608Z,16.16
2023-05-17T10:55:49.562Z,16.16
2023-05-17T10:56:49.582Z,16.15
2023-05-17T10:57:51.423Z,16.26
2023-05-17T10:58:49.542Z,16.33
2023-05-17T10:59:49.564Z,16.36
2023-05-17T11:00:49.547Z,16.08
2023-05-17T11:01:49.491Z,15.97
2023-05-17T11:02:49.574Z,16.12
2023-05-17T11:03:49.490Z,16.28
2023-05-17T11:04:49.494Z,16.31
2023-05-17T11:05:50.196Z,16.43
2023-05-17T11:06:49.507Z,16.69
2023-05-17T11:07:49.427Z,16.81
2023-05-17T11:08:49.460Z,16.87
2023-05-17T11:09:49.404Z,16.90
2023-05-17T11:10:49.399Z,16.64
2023-05-17T11:11:49.386Z,16.65
2023-05-17T11:12:49.376Z,16.41
2023-05-17T11:13:49.354Z,16.46
2023-05-17T11:14:49.376Z,16.51
2023-05-17T11:15:49.345Z,16.61
2023-05-17T11:16:49.350Z,16.49
2023-05-17T11:17:49.340Z,16.53
2023-05-17T11:18:49.434Z,16.64
2023-05-17T11:19:49.356Z,16.43
2023-05-17T11:20:49.506Z,16.49
2023-05-17T11:21:49.292Z,16.26
2023-05-17T11:22:49.258Z,16.33
2023-05-17T11:23:49.253Z,16.35
2023-05-17T11:24:49.235Z,16.51
2023-05-17T11:25:49.250Z,16.50
2023-05-17T11:26:49.233Z,16.51
2023-05-17T11:27:49.209Z,16.72
2023-05-17T11:28:49.199Z,16.93
2023-05-17T11:29:49.179Z,17.02
2023-05-17T11:30:49.192Z,17.06
2023-05-17T11:31:49.156Z,17.05
2023-05-17T11:32:49.186Z,17.15
2023-05-17T11:33:49.155Z,17.39
2023-05-17T11:34:49.133Z,17.76
2023-05-17T11:35:51.703Z,17.94
2023-05-17T11:36:49.126Z,18.07
2023-05-17T11:37:49.121Z,18.03
2023-05-17T11:38:52.267Z,18.01
2023-05-17T11:39:50.071Z,17.82
2023-05-17T11:40:49.075Z,17.74
2023-05-17T11:41:49.059Z,17.51
2023-05-17T11:42:49.105Z,17.51
2023-05-17T11:43:49.055Z,17.57
2023-05-17T11:44:49.018Z,17.64
2023-05-17T11:45:51.292Z,17.70
2023-05-17T11:46:49.002Z,17.60
2023-05-17T11:47:49.146Z,17.64
2023-05-17T11:48:49.017Z,17.24
2023-05-17T11:49:48.965Z,16.97
2023-05-17T11:50:48.976Z,16.87
2023-05-17T11:51:48.946Z,16.66
2023-05-17T11:52:48.926Z,16.54
2023-05-17T11:53:48.952Z,16.42
2023-05-17T11:54:48.905Z,16.42
2023-05-17T11:55:48.894Z,16.17
2023-05-17T11:56:48.891Z,15.91
2023-05-17T11:57:48.891Z,15.97
2023-05-17T11:58:48.854Z,16.02
2023-05-17T11:59:48.844Z,16.31
2023-05-17T12:00:48.865Z,16.39
2023-05-17T12:01:48.864Z,16.51
2023-05-17T12:02:48.831Z,16.60
2023-05-17T12:03:48.800Z,16.78
2023-05-17T12:04:48.876Z,17.02
2023-05-17T12:05:48.818Z,16.99
2023-05-17T12:06:48.887Z,17.20
2023-05-17T12:07:48.816Z,17.20
2023-05-17T12:08:48.744Z,17.04
2023-05-17T12:09:48.780Z,16.97
2023-05-17T12:10:48.721Z,17.01
2023-05-17T12:11:48.717Z,17.04
2023-05-17T12:12:48.710Z,17.05
2023-05-17T12:13:48.693Z,17.27
2023-05-17T12:14:48.686Z,17.36
2023-05-17T12:15:48.684Z,17.30
2023-05-17T12:16:48.667Z,17.38
2023-05-17T12:17:51.401Z,17.15
2023-05-17T12:18:48.856Z,17.04
2023-05-17T12:19:48.802Z,16.91
2023-05-17T12:20:48.607Z,16.66
2023-05-17T12:21:48.601Z,16.51
2023-05-17T12:22:48.640Z,16.38
2023-05-17T12:23:50.978Z,16.53
2023-05-17T12:24:48.662Z,16.65
2023-05-17T12:25:48.601Z,16.81
2023-05-17T12:26:48.551Z,16.74
2023-05-17T12:27:48.542Z,16.74
2023-05-17T12:28:48.531Z,16.87
2023-05-17T12:29:48.518Z,16.87
2023-05-17T12:30:48.515Z,16.93
2023-05-17T12:31:48.488Z,16.79
2023-05-17T12:32:48.532Z,16.69
2023-05-17T12:33:48.574Z,16.53
2023-05-17T12:34:48.447Z,16.47
2023-05-17T12:35:48.448Z,16.39
2023-05-17T12:36:48.426Z,16.13
2023-05-17T12:37:48.417Z,15.98
2023-05-17T12:38:48.412Z,16.15
2023-05-17T12:39:48.391Z,16.38
2023-05-17T12:40:48.400Z,16.50
2023-05-17T12:41:48.416Z,16.72
2023-05-17T12:42:48.357Z,17.01
2023-05-17T12:43:48.366Z,17.11
2023-05-17T12:44:48.335Z,17.08
2023-05-17T12:45:48.335Z,16.87
2023-05-17T12:46:48.312Z,16.81
2023-05-17T12:47:48.322Z,16.61
2023-05-17T12:48:48.331Z,16.43
2023-05-17T12:49:48.295Z,16.32
2023-05-17T12:50:48.266Z,16.20
2023-05-17T12:51:48.257Z,16.28
2023-05-17T12:52:48.250Z,16.39
2023-05-17T12:53:48.235Z,16.39
2023-05-17T12:54:48.221Z,16.61
2023-05-17T12:55:48.241Z,16.72
2023-05-17T12:56:48.233Z,16.83
2023-05-17T12:57:48.259Z,16.96
2023-05-17T12:58:48.177Z,16.91
2023-05-17T12:59:48.184Z,17.06
2023-05-17T13:00:48.155Z,17.02